sensor_id;sensor_type;location;lat;lon;timestamp;temperature;humidity
2100;DHT22;1055;48.854;9.302;2022-08-21T00:01:04;16.80;99.90
2100;DHT22;1055;48.854;9.302;2022-08-21T00:03:31;16.40;99.90
2100;DHT22;1055;48.854;9.302;2022-08-21T00:05:57;16.40;99.90
2100;DHT22;1055;48.854;9.302;2022-08-21T00:08:23;16.60;99.90
2100;DHT22;1055;48.854;9.302;2022-08-21T00:10:49;16.90;99.90
2100;DHT22;1055;48.854;9.302;2022-08-21T00:13:17;16.90;99.90
2100;DHT22;1055;48.854;9.302;2022-08-21T00:15:43;17.10;99.90
2100;DHT22;1055;48.854;9.302;2022-08-21T00:18:09;16.90;99.90
2100;DHT22;1055;48.854;9.302;2022-08-21T00:20:37;16.90;99.90
2100;DHT22;1055;48.854;9.302;2022-08-21T00:23:04;16.60;99.90
2100;DHT22;1055;48.854;9.302;2022-08-21T00:25:30;16.50;99.90
2100;DHT22;1055;48.854;9.302;2022-08-21T00:27:56;16.50;99.90
2100;DHT22;1055;48.854;9.302;2022-08-21T00:30:24;16.40;99.90
2100;DHT22;1055;48.854;9.302;2022-08-21T00:32:51;16.70;99.90
2100;DHT22;1055;48.854;9.302;2022-08-21T00:35:20;16.80;99.90
2100;DHT22;1055;48.854;9.302;2022-08-21T00:37:46;16.50;99.90
2100;DHT22;1055;48.854;9.302;2022-08-21T00:40:15;16.50;99.90
2100;DHT22;1055;48.854;9.302;2022-08-21T00:42:42;16.50;99.90
2100;DHT22;1055;48.854;9.302;2022-08-21T00:45:09;16.60;99.90
2100;DHT22;1055;48.854;9.302;2022-08-21T00:47:35;16.20;99.90
2100;DHT22;1055;48.854;9.302;2022-08-21T00:50:03;16.10;99.90
2100;DHT22;1055;48.854;9.302;2022-08-21T00:52:32;16.10;99.90
2100;DHT22;1055;48.854;9.302;2022-08-21T00:55:00;16.10;99.90
2100;DHT22;1055;48.854;9.302;2022-08-21T00:57:51;15.90;99.90
2100;DHT22;1055;48.854;9.302;2022-08-21T01:00:21;15.80;99.90
2100;DHT22;1055;48.854;9.302;2022-08-21T01:02:47;15.80;99.90
2100;DHT22;1055;48.854;9.302;2022-08-21T01:05:13;15.80;99.90
2100;DHT22;1055;48.854;9.302;2022-08-21T01:07:41;15.90;99.90
2100;DHT22;1055;48.854;9.302;2022-08-21T01:10:07;15.90;99.90
2100;DHT22;1055;48.854;9.302;2022-08-21T01:12:34;16.00;99.90
2100;DHT22;1055;48.854;9.302;2022-08-21T01:15:02;16.00;99.90
2100;DHT22;1055;48.854;9.302;2022-08-21T01:17:30;15.70;99.90
2100;DHT22;1055;48.854;9.302;2022-08-21T01:20:00;15.90;99.90
2100;DHT22;1055;48.854;9.302;2022-08-21T01:22:27;16.20;99.90
2100;DHT22;1055;48.854;9.302;2022-08-21T01:24:52;16.10;99.90
2100;DHT22;1055;48.854;9.302;2022-08-21T01:27:18;15.90;99.90
2100;DHT22;1055;48.854;9.302;2022-08-21T01:29:51;15.70;99.90
2100;DHT22;1055;48.854;9.302;2022-08-21T01:32:19;15.50;99.90
2100;DHT22;1055;48.854;9.302;2022-08-21T01:34:47;15.40;99.90
2100;DHT22;1055;48.854;9.302;2022-08-21T01:37:13;15.30;99.90
2100;DHT22;1055;48.854;9.302;2022-08-21T01:39:40;15.30;99.90
2100;DHT22;1055;48.854;9.302;2022-08-21T01:42:06;15.40;99.90
2100;DHT22;1055;48.854;9.302;2022-08-21T01:44:32;15.60;99.90
2100;DHT22;1055;48.854;9.302;2022-08-21T01:47:00;15.70;99.90
2100;DHT22;1055;48.854;9.302;2022-08-21T01:49:26;15.90;99.90
2100;DHT22;1055;48.854;9.302;2022-08-21T01:51:52;16.10;99.90
2100;DHT22;1055;48.854;9.302;2022-08-21T01:54:18;16.20;99.90
2100;DHT22;1055;48.854;9.302;2022-08-21T01:56:47;15.90;99.90
2100;DHT22;1055;48.854;9.302;2022-08-21T01:59:14;15.90;99.90
2100;DHT22;1055;48.854;9.302;2022-08-21T02:01:40;16.00;99.90
2100;DHT22;1055;48.854;9.302;2022-08-21T02:04:07;16.00;99.90
2100;DHT22;1055;48.854;9.302;2022-08-21T02:06:33;15.90;99.90
2100;DHT22;1055;48.854;9.302;2022-08-21T02:09:01;16.10;99.90
2100;DHT22;1055;48.854;9.302;2022-08-21T02:11:27;16.20;99.90
2100;DHT22;1055;48.854;9.302;2022-08-21T02:13:52;16.00;99.90
2100;DHT22;1055;48.854;9.302;2022-08-21T02:16:18;15.70;99.90
2100;DHT22;1055;48.854;9.302;2022-08-21T02:18:44;15.60;99.90
2100;DHT22;1055;48.854;9.302;2022-08-21T02:21:09;15.30;99.90
2100;DHT22;1055;48.854;9.302;2022-08-21T02:23:35;14.90;99.90
2100;DHT22;1055;48.854;9.302;2022-08-21T02:26:03;14.70;99.90
2100;DHT22;1055;48.854;9.302;2022-08-21T02:28:30;14.70;99.90
2100;DHT22;1055;48.854;9.302;2022-08-21T02:30:56;14.80;99.90
2100;DHT22;1055;48.854;9.302;2022-08-21T02:33:22;14.60;99.90
2100;DHT22;1055;48.854;9.302;2022-08-21T02:35:49;14.60;99.90
2100;DHT22;1055;48.854;9.302;2022-08-21T02:38:21;14.50;99.90
2100;DHT22;1055;48.854;9.302;2022-08-21T02:40:49;14.50;99.90
2100;DHT22;1055;48.854;9.302;2022-08-21T02:43:15;14.40;99.90
2100;DHT22;1055;48.854;9.302;2022-08-21T02:45:42;14.30;99.90
2100;DHT22;1055;48.854;9.302;2022-08-21T02:48:10;14.30;99.90
2100;DHT22;1055;48.854;9.302;2022-08-21T02:50:39;14.20;99.90
2100;DHT22;1055;48.854;9.302;2022-08-21T02:53:06;14.30;99.90
2100;DHT22;1055;48.854;9.302;2022-08-21T02:55:34;14.50;99.90
2100;DHT22;1055;48.854;9.302;2022-08-21T02:58:00;14.60;99.90
2100;DHT22;1055;48.854;9.302;2022-08-21T03:00:30;14.60;99.90
2100;DHT22;1055;48.854;9.302;2022-08-21T03:02:56;14.40;99.90
2100;DHT22;1055;48.854;9.302;2022-08-21T03:05:23;14.40;99.90
2100;DHT22;1055;48.854;9.302;2022-08-21T03:07:49;14.30;99.90
2100;DHT22;1055;48.854;9.302;2022-08-21T03:10:16;14.20;99.90
2100;DHT22;1055;48.854;9.302;2022-08-21T03:12:42;14.20;99.90
2100;DHT22;1055;48.854;9.302;2022-08-21T03:15:10;14.10;99.90
2100;DHT22;1055;48.854;9.302;2022-08-21T03:17:37;13.90;99.90
2100;DHT22;1055;48.854;9.302;2022-08-21T03:20:07;13.90;99.90
2100;DHT22;1055;48.854;9.302;2022-08-21T03:22:34;14.00;99.90
2100;DHT22;1055;48.854;9.302;2022-08-21T03:25:01;13.90;99.90
2100;DHT22;1055;48.854;9.302;2022-08-21T03:27:28;14.10;99.90
2100;DHT22;1055;48.854;9.302;2022-08-21T03:29:54;13.80;99.90
2100;DHT22;1055;48.854;9.302;2022-08-21T03:32:21;13.70;99.90
2100;DHT22;1055;48.854;9.302;2022-08-21T03:34:47;13.70;99.90
2100;DHT22;1055;48.854;9.302;2022-08-21T03:37:14;13.60;99.90
2100;DHT22;1055;48.854;9.302;2022-08-21T03:39:40;13.60;99.90
2100;DHT22;1055;48.854;9.302;2022-08-21T03:42:07;13.80;99.90
2100;DHT22;1055;48.854;9.302;2022-08-21T03:44:33;13.80;99.90
2100;DHT22;1055;48.854;9.302;2022-08-21T03:47:00;13.90;99.90
2100;DHT22;1055;48.854;9.302;2022-08-21T03:49:26;14.00;99.90
2100;DHT22;1055;48.854;9.302;2022-08-21T03:51:51;14.00;99.90
2100;DHT22;1055;48.854;9.302;2022-08-21T03:54:17;13.90;99.90
2100;DHT22;1055;48.854;9.302;2022-08-21T03:56:43;13.80;99.90
2100;DHT22;1055;48.854;9.302;2022-08-21T03:59:09;13.80;99.90
2100;DHT22;1055;48.854;9.302;2022-08-21T04:01:35;13.90;99.90
2100;DHT22;1055;48.854;9.302;2022-08-21T04:04:02;14.00;99.90
2100;DHT22;1055;48.854;9.302;2022-08-21T04:06:27;14.10;99.90
2100;DHT22;1055;48.854;9.302;2022-08-21T04:08:53;14.40;99.90
2100;DHT22;1055;48.854;9.302;2022-08-21T04:11:20;14.50;99.90
2100;DHT22;1055;48.854;9.302;2022-08-21T04:13:46;14.30;99.90
2100;DHT22;1055;48.854;9.302;2022-08-21T04:16:12;13.80;99.90
2100;DHT22;1055;48.854;9.302;2022-08-21T04:18:38;13.80;99.90
2100;DHT22;1055;48.854;9.302;2022-08-21T04:21:05;13.80;99.90
2100;DHT22;1055;48.854;9.302;2022-08-21T04:23:31;13.70;99.90
2100;DHT22;1055;48.854;9.302;2022-08-21T04:25:57;13.60;99.90
2100;DHT22;1055;48.854;9.302;2022-08-21T04:28:25;13.50;99.90
2100;DHT22;1055;48.854;9.302;2022-08-21T04:30:51;13.40;99.90
2100;DHT22;1055;48.854;9.302;2022-08-21T04:33:18;13.50;99.90
2100;DHT22;1055;48.854;9.302;2022-08-21T04:35:43;13.50;99.90
2100;DHT22;1055;48.854;9.302;2022-08-21T04:38:09;13.50;99.90
2100;DHT22;1055;48.854;9.302;2022-08-21T04:40:35;13.80;99.90
2100;DHT22;1055;48.854;9.302;2022-08-21T04:43:07;13.80;99.90
2100;DHT22;1055;48.854;9.302;2022-08-21T04:45:39;13.70;99.90
2100;DHT22;1055;48.854;9.302;2022-08-21T04:48:07;13.60;99.90
2100;DHT22;1055;48.854;9.302;2022-08-21T04:50:54;13.70;99.90
2100;DHT22;1055;48.854;9.302;2022-08-21T04:53:31;13.80;99.90
2100;DHT22;1055;48.854;9.302;2022-08-21T04:56:00;14.00;99.90
2100;DHT22;1055;48.854;9.302;2022-08-21T04:58:27;14.20;99.90
2100;DHT22;1055;48.854;9.302;2022-08-21T05:00:55;14.30;99.90
2100;DHT22;1055;48.854;9.302;2022-08-21T05:03:22;14.30;99.90
2100;DHT22;1055;48.854;9.302;2022-08-21T05:05:48;14.30;99.90
2100;DHT22;1055;48.854;9.302;2022-08-21T05:08:17;14.30;99.90
2100;DHT22;1055;48.854;9.302;2022-08-21T05:10:44;14.30;99.90
2100;DHT22;1055;48.854;9.302;2022-08-21T05:13:12;14.10;99.90
2100;DHT22;1055;48.854;9.302;2022-08-21T05:15:39;14.00;99.90
2100;DHT22;1055;48.854;9.302;2022-08-21T05:18:04;13.90;99.90
2100;DHT22;1055;48.854;9.302;2022-08-21T05:20:30;13.90;99.90
2100;DHT22;1055;48.854;9.302;2022-08-21T05:22:56;14.00;99.90
2100;DHT22;1055;48.854;9.302;2022-08-21T05:25:21;14.10;99.90
2100;DHT22;1055;48.854;9.302;2022-08-21T05:27:47;14.30;99.90
2100;DHT22;1055;48.854;9.302;2022-08-21T05:30:13;14.40;99.90
2100;DHT22;1055;48.854;9.302;2022-08-21T05:32:38;14.50;99.90
2100;DHT22;1055;48.854;9.302;2022-08-21T05:35:06;14.70;99.90
2100;DHT22;1055;48.854;9.302;2022-08-21T05:37:33;14.70;99.90
2100;DHT22;1055;48.854;9.302;2022-08-21T05:40:00;14.60;99.90
2100;DHT22;1055;48.854;9.302;2022-08-21T05:42:25;14.80;99.90
2100;DHT22;1055;48.854;9.302;2022-08-21T05:44:51;14.70;99.90
2100;DHT22;1055;48.854;9.302;2022-08-21T05:47:17;14.90;99.90
2100;DHT22;1055;48.854;9.302;2022-08-21T05:49:42;14.90;99.90
2100;DHT22;1055;48.854;9.302;2022-08-21T05:52:08;14.80;99.90
2100;DHT22;1055;48.854;9.302;2022-08-21T05:54:36;15.00;99.90
2100;DHT22;1055;48.854;9.302;2022-08-21T05:57:03;15.20;99.90
2100;DHT22;1055;48.854;9.302;2022-08-21T05:59:28;15.20;99.90
2100;DHT22;1055;48.854;9.302;2022-08-21T06:01:54;15.10;99.90
2100;DHT22;1055;48.854;9.302;2022-08-21T06:04:20;15.20;99.90
2100;DHT22;1055;48.854;9.302;2022-08-21T06:06:46;15.10;99.90
2100;DHT22;1055;48.854;9.302;2022-08-21T06:09:13;15.00;99.90
2100;DHT22;1055;48.854;9.302;2022-08-21T06:11:38;14.90;99.90
2100;DHT22;1055;48.854;9.302;2022-08-21T06:14:04;15.00;99.90
2100;DHT22;1055;48.854;9.302;2022-08-21T06:16:32;14.80;99.90
2100;DHT22;1055;48.854;9.302;2022-08-21T06:18:57;15.00;99.90
2100;DHT22;1055;48.854;9.302;2022-08-21T06:21:23;14.90;99.90
2100;DHT22;1055;48.854;9.302;2022-08-21T06:23:48;14.80;99.90
2100;DHT22;1055;48.854;9.302;2022-08-21T06:26:14;14.70;99.90
2100;DHT22;1055;48.854;9.302;2022-08-21T06:28:40;14.70;99.90
2100;DHT22;1055;48.854;9.302;2022-08-21T06:31:25;14.90;99.90
2100;DHT22;1055;48.854;9.302;2022-08-21T06:33:52;15.20;99.90
2100;DHT22;1055;48.854;9.302;2022-08-21T06:36:18;15.20;99.90
2100;DHT22;1055;48.854;9.302;2022-08-21T06:38:44;15.30;99.90
2100;DHT22;1055;48.854;9.302;2022-08-21T06:41:11;15.50;99.90
2100;DHT22;1055;48.854;9.302;2022-08-21T06:43:37;15.80;99.90
2100;DHT22;1055;48.854;9.302;2022-08-21T06:46:02;15.90;99.90
2100;DHT22;1055;48.854;9.302;2022-08-21T06:48:28;15.90;99.90
2100;DHT22;1055;48.854;9.302;2022-08-21T06:50:58;16.00;99.90
2100;DHT22;1055;48.854;9.302;2022-08-21T06:53:24;16.20;99.90
2100;DHT22;1055;48.854;9.302;2022-08-21T06:55:50;16.10;99.90
2100;DHT22;1055;48.854;9.302;2022-08-21T06:58:16;16.10;99.90
2100;DHT22;1055;48.854;9.302;2022-08-21T07:00:46;16.00;99.90
2100;DHT22;1055;48.854;9.302;2022-08-21T07:03:24;16.30;99.90
2100;DHT22;1055;48.854;9.302;2022-08-21T07:05:50;16.30;99.90
2100;DHT22;1055;48.854;9.302;2022-08-21T07:08:16;16.40;99.90
2100;DHT22;1055;48.854;9.302;2022-08-21T07:10:42;16.40;99.90
2100;DHT22;1055;48.854;9.302;2022-08-21T07:13:08;16.60;99.90
2100;DHT22;1055;48.854;9.302;2022-08-21T07:15:34;16.80;99.90
2100;DHT22;1055;48.854;9.302;2022-08-21T07:18:00;17.00;99.90
2100;DHT22;1055;48.854;9.302;2022-08-21T07:20:29;17.20;99.90
2100;DHT22;1055;48.854;9.302;2022-08-21T07:22:58;17.30;99.90
2100;DHT22;1055;48.854;9.302;2022-08-21T07:25:24;17.20;99.90
2100;DHT22;1055;48.854;9.302;2022-08-21T07:27:50;17.30;99.90
2100;DHT22;1055;48.854;9.302;2022-08-21T07:30:16;17.40;99.90
2100;DHT22;1055;48.854;9.302;2022-08-21T07:32:41;17.60;99.90
2100;DHT22;1055;48.854;9.302;2022-08-21T07:35:07;17.70;99.90
2100;DHT22;1055;48.854;9.302;2022-08-21T07:37:33;17.90;99.90
2100;DHT22;1055;48.854;9.302;2022-08-21T07:39:59;17.90;99.90
2100;DHT22;1055;48.854;9.302;2022-08-21T07:42:24;18.00;99.90
2100;DHT22;1055;48.854;9.302;2022-08-21T07:44:50;18.20;99.90
2100;DHT22;1055;48.854;9.302;2022-08-21T07:47:16;18.00;99.90
2100;DHT22;1055;48.854;9.302;2022-08-21T07:49:41;18.20;99.90
2100;DHT22;1055;48.854;9.302;2022-08-21T07:52:07;18.30;99.90
2100;DHT22;1055;48.854;9.302;2022-08-21T07:54:33;18.30;99.90
2100;DHT22;1055;48.854;9.302;2022-08-21T07:56:58;18.40;99.90
2100;DHT22;1055;48.854;9.302;2022-08-21T07:59:24;18.60;99.90
2100;DHT22;1055;48.854;9.302;2022-08-21T08:01:50;18.70;99.90
2100;DHT22;1055;48.854;9.302;2022-08-21T08:04:15;18.90;99.90
2100;DHT22;1055;48.854;9.302;2022-08-21T08:06:41;19.00;99.90
2100;DHT22;1055;48.854;9.302;2022-08-21T08:09:07;19.10;99.90
2100;DHT22;1055;48.854;9.302;2022-08-21T08:11:32;19.20;99.90
2100;DHT22;1055;48.854;9.302;2022-08-21T08:13:59;19.20;99.90
2100;DHT22;1055;48.854;9.302;2022-08-21T08:16:25;19.30;99.90
2100;DHT22;1055;48.854;9.302;2022-08-21T08:18:51;19.40;99.90
2100;DHT22;1055;48.854;9.302;2022-08-21T08:21:17;19.50;99.90
2100;DHT22;1055;48.854;9.302;2022-08-21T08:23:46;19.30;99.90
2100;DHT22;1055;48.854;9.302;2022-08-21T08:26:12;19.40;99.90
2100;DHT22;1055;48.854;9.302;2022-08-21T08:28:38;19.50;99.90
2100;DHT22;1055;48.854;9.302;2022-08-21T08:31:03;19.60;99.90
2100;DHT22;1055;48.854;9.302;2022-08-21T08:33:29;19.70;99.90
2100;DHT22;1055;48.854;9.302;2022-08-21T08:35:55;19.80;99.90
2100;DHT22;1055;48.854;9.302;2022-08-21T08:38:23;20.00;99.90
2100;DHT22;1055;48.854;9.302;2022-08-21T08:40:55;20.00;99.90
2100;DHT22;1055;48.854;9.302;2022-08-21T08:43:21;20.10;99.90
2100;DHT22;1055;48.854;9.302;2022-08-21T08:45:53;20.30;99.90
2100;DHT22;1055;48.854;9.302;2022-08-21T08:48:53;20.30;99.90
2100;DHT22;1055;48.854;9.302;2022-08-21T08:51:32;20.30;99.90
2100;DHT22;1055;48.854;9.302;2022-08-21T08:54:07;20.60;99.90
2100;DHT22;1055;48.854;9.302;2022-08-21T08:56:34;20.60;99.90
2100;DHT22;1055;48.854;9.302;2022-08-21T08:59:07;20.70;99.90
2100;DHT22;1055;48.854;9.302;2022-08-21T09:01:34;20.70;99.90
2100;DHT22;1055;48.854;9.302;2022-08-21T09:04:00;20.70;99.90
2100;DHT22;1055;48.854;9.302;2022-08-21T09:20:15;21.20;99.90
2100;DHT22;1055;48.854;9.302;2022-08-21T09:25:23;21.40;99.90
2100;DHT22;1055;48.854;9.302;2022-08-21T09:27:50;21.50;99.90
2100;DHT22;1055;48.854;9.302;2022-08-21T09:30:17;21.60;99.90
2100;DHT22;1055;48.854;9.302;2022-08-21T09:32:43;21.60;99.90
2100;DHT22;1055;48.854;9.302;2022-08-21T09:35:19;21.60;99.90
2100;DHT22;1055;48.854;9.302;2022-08-21T09:38:03;21.80;99.90
2100;DHT22;1055;48.854;9.302;2022-08-21T09:40:43;21.90;99.90
2100;DHT22;1055;48.854;9.302;2022-08-21T09:43:18;21.90;99.90
2100;DHT22;1055;48.854;9.302;2022-08-21T09:45:45;21.90;99.90
2100;DHT22;1055;48.854;9.302;2022-08-21T09:48:19;22.10;99.90
2100;DHT22;1055;48.854;9.302;2022-08-21T09:50:47;22.10;99.90
2100;DHT22;1055;48.854;9.302;2022-08-21T09:53:19;22.20;99.90
2100;DHT22;1055;48.854;9.302;2022-08-21T09:58:37;22.50;99.90
2100;DHT22;1055;48.854;9.302;2022-08-21T10:01:06;22.60;99.90
2100;DHT22;1055;48.854;9.302;2022-08-21T10:03:32;22.70;99.90
2100;DHT22;1055;48.854;9.302;2022-08-21T10:06:01;22.80;99.90
2100;DHT22;1055;48.854;9.302;2022-08-21T10:08:31;22.90;99.90
2100;DHT22;1055;48.854;9.302;2022-08-21T10:11:04;23.00;99.90
2100;DHT22;1055;48.854;9.302;2022-08-21T10:16:28;23.20;99.30
2100;DHT22;1055;48.854;9.302;2022-08-21T10:19:05;23.00;98.20
2100;DHT22;1055;48.854;9.302;2022-08-21T10:25:28;23.10;99.90
2100;DHT22;1055;48.854;9.302;2022-08-21T10:27:47;23.30;99.90
2100;DHT22;1055;48.854;9.302;2022-08-21T10:33:29;23.60;99.90
2100;DHT22;1055;48.854;9.302;2022-08-21T10:36:12;23.70;99.90
2100;DHT22;1055;48.854;9.302;2022-08-21T10:38:54;23.60;98.50
2100;DHT22;1055;48.854;9.302;2022-08-21T10:44:23;23.90;99.90
2100;DHT22;1055;48.854;9.302;2022-08-21T10:55:09;24.20;97.20
2100;DHT22;1055;48.854;9.302;2022-08-21T10:58:03;24.20;97.10
2100;DHT22;1055;48.854;9.302;2022-08-21T11:00:35;24.20;95.80
2100;DHT22;1055;48.854;9.302;2022-08-21T11:03:12;24.40;96.10
2100;DHT22;1055;48.854;9.302;2022-08-21T11:06:05;24.40;95.10
2100;DHT22;1055;48.854;9.302;2022-08-21T11:08:43;24.40;94.10
2100;DHT22;1055;48.854;9.302;2022-08-21T11:11:20;24.50;93.60
2100;DHT22;1055;48.854;9.302;2022-08-21T11:16:40;24.90;94.40
2100;DHT22;1055;48.854;9.302;2022-08-21T11:22:02;25.00;92.50
2100;DHT22;1055;48.854;9.302;2022-08-21T11:24:55;25.10;90.50
2100;DHT22;1055;48.854;9.302;2022-08-21T11:27:49;25.10;90.20
2100;DHT22;1055;48.854;9.302;2022-08-21T11:30:20;24.80;88.00
2100;DHT22;1055;48.854;9.302;2022-08-21T11:33:00;24.90;90.00
2100;DHT22;1055;48.854;9.302;2022-08-21T11:35:46;25.00;88.80
2100;DHT22;1055;48.854;9.302;2022-08-21T11:38:57;25.00;90.30
2100;DHT22;1055;48.854;9.302;2022-08-21T11:41:33;25.10;89.60
2100;DHT22;1055;48.854;9.302;2022-08-21T11:44:39;25.30;89.90
2100;DHT22;1055;48.854;9.302;2022-08-21T11:47:49;25.40;88.30
2100;DHT22;1055;48.854;9.302;2022-08-21T11:50:27;25.60;86.60
2100;DHT22;1055;48.854;9.302;2022-08-21T11:53:45;25.80;84.20
2100;DHT22;1055;48.854;9.302;2022-08-21T11:56:41;25.70;82.60
2100;DHT22;1055;48.854;9.302;2022-08-21T11:59:25;25.90;79.90
2100;DHT22;1055;48.854;9.302;2022-08-21T12:01:55;25.60;78.20
2100;DHT22;1055;48.854;9.302;2022-08-21T12:07:08;25.90;77.60
2100;DHT22;1055;48.854;9.302;2022-08-21T12:09:39;25.90;78.10
2100;DHT22;1055;48.854;9.302;2022-08-21T12:12:24;26.20;79.30
2100;DHT22;1055;48.854;9.302;2022-08-21T12:15:11;26.40;78.50
2100;DHT22;1055;48.854;9.302;2022-08-21T12:18:04;26.40;73.90
2100;DHT22;1055;48.854;9.302;2022-08-21T12:25:58;26.30;71.40
2100;DHT22;1055;48.854;9.302;2022-08-21T12:28:31;26.00;70.80
2100;DHT22;1055;48.854;9.302;2022-08-21T12:31:02;26.40;71.80
2100;DHT22;1055;48.854;9.302;2022-08-21T12:33:39;26.70;71.90
2100;DHT22;1055;48.854;9.302;2022-08-21T12:36:16;26.70;67.90
2100;DHT22;1055;48.854;9.302;2022-08-21T12:38:59;27.00;70.70
2100;DHT22;1055;48.854;9.302;2022-08-21T12:41:36;27.00;68.60
2100;DHT22;1055;48.854;9.302;2022-08-21T12:44:14;27.10;69.80
2100;DHT22;1055;48.854;9.302;2022-08-21T12:47:00;27.00;68.40
2100;DHT22;1055;48.854;9.302;2022-08-21T12:49:36;26.90;67.50
2100;DHT22;1055;48.854;9.302;2022-08-21T12:52:11;27.20;68.40
2100;DHT22;1055;48.854;9.302;2022-08-21T12:54:43;27.40;68.10
2100;DHT22;1055;48.854;9.302;2022-08-21T12:57:24;27.50;67.70
2100;DHT22;1055;48.854;9.302;2022-08-21T12:59:59;28.10;65.20
2100;DHT22;1055;48.854;9.302;2022-08-21T13:02:32;28.30;61.10
2100;DHT22;1055;48.854;9.302;2022-08-21T13:05:02;28.10;63.10
2100;DHT22;1055;48.854;9.302;2022-08-21T13:07:31;28.40;59.30
2100;DHT22;1055;48.854;9.302;2022-08-21T13:10:06;28.70;61.40
2100;DHT22;1055;48.854;9.302;2022-08-21T13:12:33;28.90;59.30
2100;DHT22;1055;48.854;9.302;2022-08-21T13:15:04;29.30;58.00
2100;DHT22;1055;48.854;9.302;2022-08-21T13:17:33;30.40;57.60
2100;DHT22;1055;48.854;9.302;2022-08-21T13:20:09;29.50;56.80
2100;DHT22;1055;48.854;9.302;2022-08-21T13:22:43;29.30;54.90
2100;DHT22;1055;48.854;9.302;2022-08-21T13:25:14;29.30;57.60
2100;DHT22;1055;48.854;9.302;2022-08-21T13:27:41;29.60;56.70
2100;DHT22;1055;48.854;9.302;2022-08-21T13:32:44;29.50;56.10
2100;DHT22;1055;48.854;9.302;2022-08-21T13:35:19;29.70;54.20
2100;DHT22;1055;48.854;9.302;2022-08-21T13:37:47;29.50;54.70
2100;DHT22;1055;48.854;9.302;2022-08-21T13:40:16;29.20;53.60
2100;DHT22;1055;48.854;9.302;2022-08-21T13:42:46;29.70;54.70
2100;DHT22;1055;48.854;9.302;2022-08-21T13:45:17;29.80;54.70
2100;DHT22;1055;48.854;9.302;2022-08-21T13:47:45;30.30;54.30
2100;DHT22;1055;48.854;9.302;2022-08-21T13:50:13;30.70;53.90
2100;DHT22;1055;48.854;9.302;2022-08-21T13:52:58;30.10;52.30
2100;DHT22;1055;48.854;9.302;2022-08-21T13:55:25;29.90;54.80
2100;DHT22;1055;48.854;9.302;2022-08-21T13:58:01;30.20;52.60
2100;DHT22;1055;48.854;9.302;2022-08-21T14:00:29;30.60;52.40
2100;DHT22;1055;48.854;9.302;2022-08-21T14:03:04;29.90;52.20
2100;DHT22;1055;48.854;9.302;2022-08-21T14:05:34;30.30;53.10
2100;DHT22;1055;48.854;9.302;2022-08-21T14:10:27;30.80;50.70
2100;DHT22;1055;48.854;9.302;2022-08-21T14:12:54;30.60;51.50
2100;DHT22;1055;48.854;9.302;2022-08-21T14:15:26;31.30;50.80
2100;DHT22;1055;48.854;9.302;2022-08-21T14:17:54;31.30;50.60
2100;DHT22;1055;48.854;9.302;2022-08-21T14:20:32;31.10;49.70
2100;DHT22;1055;48.854;9.302;2022-08-21T14:22:59;30.80;51.30
2100;DHT22;1055;48.854;9.302;2022-08-21T14:27:53;30.70;50.10
2100;DHT22;1055;48.854;9.302;2022-08-21T14:30:27;30.40;50.40
2100;DHT22;1055;48.854;9.302;2022-08-21T14:32:53;30.80;50.50
2100;DHT22;1055;48.854;9.302;2022-08-21T14:35:19;31.40;50.90
2100;DHT22;1055;48.854;9.302;2022-08-21T14:37:47;31.60;49.50
2100;DHT22;1055;48.854;9.302;2022-08-21T14:40:16;31.60;49.30
2100;DHT22;1055;48.854;9.302;2022-08-21T14:42:43;31.30;49.10
2100;DHT22;1055;48.854;9.302;2022-08-21T14:45:23;31.80;49.00
2100;DHT22;1055;48.854;9.302;2022-08-21T14:47:51;32.00;48.50
2100;DHT22;1055;48.854;9.302;2022-08-21T14:50:16;31.90;48.10
2100;DHT22;1055;48.854;9.302;2022-08-21T14:52:42;31.50;48.20
2100;DHT22;1055;48.854;9.302;2022-08-21T14:55:11;31.80;49.00
2100;DHT22;1055;48.854;9.302;2022-08-21T14:57:44;32.50;48.30
2100;DHT22;1055;48.854;9.302;2022-08-21T15:00:13;33.00;47.80
2100;DHT22;1055;48.854;9.302;2022-08-21T15:02:39;33.30;47.00
2100;DHT22;1055;48.854;9.302;2022-08-21T15:05:06;32.80;46.30
2100;DHT22;1055;48.854;9.302;2022-08-21T15:07:31;33.20;47.00
2100;DHT22;1055;48.854;9.302;2022-08-21T15:09:57;32.10;46.80
2100;DHT22;1055;48.854;9.302;2022-08-21T15:12:24;32.30;47.10
2100;DHT22;1055;48.854;9.302;2022-08-21T15:14:50;31.90;47.50
2100;DHT22;1055;48.854;9.302;2022-08-21T15:17:15;31.40;47.90
2100;DHT22;1055;48.854;9.302;2022-08-21T15:19:41;32.60;49.10
2100;DHT22;1055;48.854;9.302;2022-08-21T15:22:07;33.00;47.20
2100;DHT22;1055;48.854;9.302;2022-08-21T15:24:33;33.80;47.10
2100;DHT22;1055;48.854;9.302;2022-08-21T15:27:01;34.30;46.40
2100;DHT22;1055;48.854;9.302;2022-08-21T15:29:29;35.00;44.80
2100;DHT22;1055;48.854;9.302;2022-08-21T15:32:16;34.90;44.10
2100;DHT22;1055;48.854;9.302;2022-08-21T15:34:42;34.20;44.40
2100;DHT22;1055;48.854;9.302;2022-08-21T15:37:08;34.80;44.00
2100;DHT22;1055;48.854;9.302;2022-08-21T15:39:35;34.90;43.10
2100;DHT22;1055;48.854;9.302;2022-08-21T15:42:01;34.90;43.30
2100;DHT22;1055;48.854;9.302;2022-08-21T15:44:28;34.60;43.10
2100;DHT22;1055;48.854;9.302;2022-08-21T15:46:55;34.50;42.70
2100;DHT22;1055;48.854;9.302;2022-08-21T15:49:21;34.00;41.70
2100;DHT22;1055;48.854;9.302;2022-08-21T15:51:47;34.20;43.60
2100;DHT22;1055;48.854;9.302;2022-08-21T15:54:13;34.20;43.20
2100;DHT22;1055;48.854;9.302;2022-08-21T15:56:40;34.40;42.70
2100;DHT22;1055;48.854;9.302;2022-08-21T15:59:17;34.50;42.80
2100;DHT22;1055;48.854;9.302;2022-08-21T16:01:44;34.70;43.00
2100;DHT22;1055;48.854;9.302;2022-08-21T16:04:13;35.00;43.00
2100;DHT22;1055;48.854;9.302;2022-08-21T16:06:40;33.90;42.80
2100;DHT22;1055;48.854;9.302;2022-08-21T16:09:07;33.20;43.10
2100;DHT22;1055;48.854;9.302;2022-08-21T16:11:33;33.70;43.80
2100;DHT22;1055;48.854;9.302;2022-08-21T16:13:58;34.20;42.30
2100;DHT22;1055;48.854;9.302;2022-08-21T16:16:24;34.60;42.50
2100;DHT22;1055;48.854;9.302;2022-08-21T16:18:51;33.70;43.10
2100;DHT22;1055;48.854;9.302;2022-08-21T16:21:17;33.30;41.00
2100;DHT22;1055;48.854;9.302;2022-08-21T16:23:43;33.10;41.30
2100;DHT22;1055;48.854;9.302;2022-08-21T16:26:11;32.60;44.20
2100;DHT22;1055;48.854;9.302;2022-08-21T16:28:38;33.60;43.10
2100;DHT22;1055;48.854;9.302;2022-08-21T16:31:04;34.20;42.30
2100;DHT22;1055;48.854;9.302;2022-08-21T16:33:34;33.90;42.70
2100;DHT22;1055;48.854;9.302;2022-08-21T16:36:01;33.80;42.00
2100;DHT22;1055;48.854;9.302;2022-08-21T16:38:28;33.60;41.60
2100;DHT22;1055;48.854;9.302;2022-08-21T16:40:54;32.80;41.50
2100;DHT22;1055;48.854;9.302;2022-08-21T16:43:26;33.90;41.60
2100;DHT22;1055;48.854;9.302;2022-08-21T16:45:53;33.20;41.80
2100;DHT22;1055;48.854;9.302;2022-08-21T16:48:19;33.80;42.20
2100;DHT22;1055;48.854;9.302;2022-08-21T16:50:45;34.20;41.40
2100;DHT22;1055;48.854;9.302;2022-08-21T16:53:11;33.70;41.80
2100;DHT22;1055;48.854;9.302;2022-08-21T16:55:37;32.60;43.70
2100;DHT22;1055;48.854;9.302;2022-08-21T16:58:27;33.40;43.40
2100;DHT22;1055;48.854;9.302;2022-08-21T17:00:54;33.60;43.00
2100;DHT22;1055;48.854;9.302;2022-08-21T17:03:23;32.50;44.10
2100;DHT22;1055;48.854;9.302;2022-08-21T17:05:50;32.40;45.00
2100;DHT22;1055;48.854;9.302;2022-08-21T17:08:16;32.50;44.80
2100;DHT22;1055;48.854;9.302;2022-08-21T17:10:44;32.60;44.10
2100;DHT22;1055;48.854;9.302;2022-08-21T17:13:11;32.30;45.30
2100;DHT22;1055;48.854;9.302;2022-08-21T17:15:37;32.50;44.60
2100;DHT22;1055;48.854;9.302;2022-08-21T17:18:04;32.60;44.50